createdAt,value
2023-07-28T00:01:46.176Z,3.92
2023-07-28T00:04:13.999Z,3.86
2023-07-28T00:06:42.157Z,4.13
2023-07-28T00:09:10.143Z,4.16
2023-07-28T00:11:39.634Z,4.02
2023-07-28T00:14:07.369Z,3.78
2023-07-28T00:16:35.364Z,4.09
2023-07-28T00:19:04.675Z,4.05
2023-07-28T00:21:32.485Z,3.94
2023-07-28T00:24:00.314Z,3.55
2023-07-28T00:26:28.086Z,3.81
2023-07-28T00:28:55.856Z,3.76
2023-07-28T00:31:23.697Z,3.81
2023-07-28T00:33:54.202Z,3.60
2023-07-28T00:36:23.350Z,3.70
2023-07-28T00:38:53.622Z,3.76
2023-07-28T00:41:23.722Z,3.68
2023-07-28T00:43:54.488Z,3.87
2023-07-28T00:46:22.485Z,4.09
2023-07-28T00:48:50.357Z,3.95
2023-07-28T00:51:18.817Z,4.13
2023-07-28T00:53:47.965Z,4.35
2023-07-28T00:56:16.181Z,4.32
2023-07-28T00:58:44.194Z,4.43
2023-07-28T01:01:12.001Z,4.36
2023-07-28T01:03:39.817Z,4.39
2023-07-28T01:06:20.960Z,4.54
2023-07-28T01:08:52.052Z,4.21
2023-07-28T01:11:19.846Z,4.14
2023-07-28T01:13:48.040Z,4.19
2023-07-28T01:16:16.829Z,4.19
2023-07-28T01:18:44.660Z,4.36
2023-07-28T01:21:22.670Z,4.39
2023-07-28T01:23:58.048Z,4.00
2023-07-28T01:26:33.188Z,4.39
2023-07-28T01:29:05.122Z,4.33
2023-07-28T01:31:33.249Z,4.44
2023-07-28T01:34:01.070Z,4.33
2023-07-28T01:36:28.827Z,4.26
2023-07-28T01:38:56.576Z,4.39
2023-07-28T01:41:24.305Z,4.03
2023-07-28T01:43:56.671Z,4.44
2023-07-28T01:46:24.843Z,4.43
2023-07-28T01:48:52.693Z,4.30
2023-07-28T01:51:20.454Z,4.50
2023-07-28T01:53:48.234Z,4.08
2023-07-28T01:56:16.118Z,3.96
2023-07-28T01:58:43.820Z,3.97
2023-07-28T02:01:14.727Z,4.13
2023-07-28T02:03:42.495Z,4.11
2023-07-28T02:06:10.266Z,4.44
2023-07-28T02:08:38.030Z,4.45
2023-07-28T02:11:05.757Z,4.72
2023-07-28T02:13:36.588Z,4.80
2023-07-28T02:16:04.338Z,4.71
2023-07-28T02:18:33.569Z,4.99
2023-07-28T02:21:04.286Z,4.90
2023-07-28T02:23:32.046Z,4.52
2023-07-28T02:26:00.261Z,5.10
2023-07-28T02:28:28.064Z,5.27
2023-07-28T02:30:55.876Z,4.92
2023-07-28T02:33:23.723Z,4.67
2023-07-28T02:35:52.810Z,4.62
2023-07-28T02:38:20.643Z,4.46
2023-07-28T02:40:48.458Z,4.58
2023-07-28T02:43:16.237Z,4.54
2023-07-28T02:45:44.576Z,4.54
2023-07-28T02:48:12.333Z,4.61
2023-07-28T02:50:49.280Z,4.68
2023-07-28T02:53:18.444Z,4.68
2023-07-28T02:55:48.657Z,4.87
2023-07-28T02:58:16.584Z,4.82
2023-07-28T03:00:47.643Z,4.86
2023-07-28T03:03:15.529Z,4.77
2023-07-28T03:05:45.798Z,4.70
2023-07-28T03:08:13.568Z,5.03
2023-07-28T03:10:42.689Z,5.18
2023-07-28T03:13:10.441Z,5.49
2023-07-28T03:15:38.173Z,5.60
2023-07-28T03:18:05.907Z,5.39
2023-07-28T03:20:33.633Z,5.62
2023-07-28T03:23:01.393Z,5.23
2023-07-28T03:25:29.103Z,5.41
2023-07-28T03:27:58.272Z,5.27
2023-07-28T03:30:26.090Z,5.65
2023-07-28T03:32:53.879Z,5.17
2023-07-28T03:35:21.659Z,5.71
2023-07-28T03:37:49.420Z,5.73
2023-07-28T03:40:17.252Z,5.48
2023-07-28T03:42:45.096Z,5.87
2023-07-28T03:45:14.282Z,5.97
2023-07-28T03:47:42.289Z,5.91
2023-07-28T03:50:10.210Z,6.02
2023-07-28T03:52:37.977Z,6.09
2023-07-28T03:55:06.099Z,5.99
2023-07-28T03:57:33.856Z,6.11
2023-07-28T04:00:01.701Z,5.86
2023-07-28T04:02:30.843Z,5.54
2023-07-28T04:04:58.968Z,5.29
2023-07-28T04:07:29.614Z,5.39
2023-07-28T04:09:57.357Z,5.92
2023-07-28T04:12:25.119Z,5.70
2023-07-28T04:14:57.463Z,5.81
2023-07-28T04:17:25.709Z,5.90
2023-07-28T04:19:54.839Z,6.07
2023-07-28T04:22:23.216Z,5.73
2023-07-28T04:24:50.932Z,5.72
2023-07-28T04:27:18.681Z,5.88
2023-07-28T04:29:46.407Z,5.79
2023-07-28T04:32:17.009Z,5.61
2023-07-28T04:34:44.702Z,5.56
2023-07-28T04:37:13.784Z,5.77
2023-07-28T04:39:41.479Z,5.77
2023-07-28T04:42:09.595Z,5.40
2023-07-28T04:44:37.321Z,5.14
2023-07-28T04:47:05.202Z,5.17
2023-07-28T04:49:32.922Z,4.77
2023-07-28T04:52:00.693Z,4.77
2023-07-28T04:54:29.798Z,4.94
2023-07-28T04:56:57.575Z,4.65
2023-07-28T04:59:34.604Z,4.59
2023-07-28T05:02:02.355Z,4.59
2023-07-28T05:04:30.053Z,4.75
2023-07-28T05:06:57.724Z,4.71
2023-07-28T05:09:25.563Z,4.73
2023-07-28T05:11:54.726Z,4.73
2023-07-28T05:14:47.104Z,4.87
2023-07-28T05:17:16.005Z,4.84
2023-07-28T05:19:43.917Z,4.64
2023-07-28T05:22:11.629Z,5.09
2023-07-28T05:24:39.351Z,4.95
2023-07-28T05:27:08.624Z,5.01
2023-07-28T05:29:36.332Z,4.89
2023-07-28T05:32:04.978Z,4.92
2023-07-28T05:34:32.638Z,5.20
2023-07-28T05:37:00.516Z,5.11
2023-07-28T05:39:28.198Z,4.80
2023-07-28T05:41:55.937Z,4.83
2023-07-28T05:44:24.991Z,4.70
2023-07-28T05:46:52.782Z,4.29
2023-07-28T05:49:20.461Z,4.56
2023-07-28T05:51:48.102Z,4.57
2023-07-28T05:54:16.537Z,4.44
2023-07-28T05:56:44.324Z,4.32
2023-07-28T05:59:12.093Z,4.47
2023-07-28T06:01:41.070Z,4.17
2023-07-28T06:04:08.729Z,3.87
2023-07-28T06:06:36.462Z,3.93
2023-07-28T06:09:04.224Z,3.94
2023-07-28T06:11:31.847Z,4.14
2023-07-28T06:13:59.480Z,4.11
2023-07-28T06:16:29.973Z,3.97
2023-07-28T06:18:59.152Z,4.17
2023-07-28T06:21:26.861Z,4.39
2023-07-28T06:23:54.598Z,4.03
2023-07-28T06:26:22.418Z,4.29
2023-07-28T06:28:50.193Z,4.12
2023-07-28T06:31:18.198Z,4.18
2023-07-28T06:33:46.015Z,4.16
2023-07-28T06:36:15.191Z,4.10
2023-07-28T06:38:45.058Z,4.28
2023-07-28T06:41:12.773Z,4.62
2023-07-28T06:43:40.563Z,4.22
2023-07-28T06:46:08.402Z,4.42
2023-07-28T06:48:39.619Z,4.71
2023-07-28T06:51:07.364Z,4.65
2023-07-28T06:53:36.615Z,4.37
2023-07-28T06:56:04.754Z,4.51
2023-07-28T06:58:32.495Z,4.16
2023-07-28T07:01:00.193Z,4.38
2023-07-28T07:03:30.870Z,4.22
2023-07-28T07:05:58.669Z,4.12
2023-07-28T07:08:27.539Z,4.16
2023-07-28T07:10:56.614Z,4.46
2023-07-28T07:13:24.349Z,4.20
2023-07-28T07:15:52.110Z,4.24
2023-07-28T07:18:19.923Z,4.63
2023-07-28T07:20:47.640Z,4.62
2023-07-28T07:23:15.413Z,4.51
2023-07-28T07:25:43.137Z,4.88
2023-07-28T07:28:12.349Z,4.69
2023-07-28T07:30:42.889Z,4.58
2023-07-28T07:33:10.674Z,4.54
2023-07-28T07:35:39.473Z,4.62
2023-07-28T07:38:09.976Z,5.16
2023-07-28T07:40:38.247Z,4.67
2023-07-28T07:43:06.921Z,4.34
2023-07-28T07:45:36.131Z,4.20
2023-07-28T07:48:04.729Z,4.22
2023-07-28T07:50:32.590Z,3.91
2023-07-28T07:53:00.469Z,4.10
2023-07-28T07:55:28.232Z,4.20
2023-07-28T07:57:56.019Z,4.05
2023-07-28T08:00:24.883Z,4.05
2023-07-28T08:02:54.106Z,4.20
2023-07-28T08:05:22.398Z,4.13
2023-07-28T08:07:51.804Z,4.64
2023-07-28T08:10:19.586Z,4.37
2023-07-28T08:12:48.455Z,4.69
2023-07-28T08:15:16.303Z,4.55
2023-07-28T08:17:44.187Z,4.43
2023-07-28T08:20:15.050Z,4.42
2023-07-28T08:22:42.834Z,4.32
2023-07-28T08:25:11.116Z,4.47
2023-07-28T08:27:38.881Z,4.67
2023-07-28T08:30:07.342Z,4.50
2023-07-28T08:32:35.302Z,4.52
2023-07-28T08:35:04.255Z,4.64
2023-07-28T08:37:34.049Z,4.92
2023-07-28T08:40:02.044Z,4.81
2023-07-28T08:42:31.245Z,4.79
2023-07-28T08:44:59.212Z,4.82
2023-07-28T08:47:27.002Z,4.78
2023-07-28T08:49:54.732Z,4.32
2023-07-28T08:52:22.444Z,4.55
2023-07-28T08:54:51.576Z,4.45
2023-07-28T08:57:20.432Z,4.51
2023-07-28T08:59:49.439Z,4.60
2023-07-28T09:02:18.008Z,4.43
2023-07-28T09:04:46.557Z,4.75
2023-07-28T09:07:14.785Z,4.92
2023-07-28T09:09:43.250Z,4.38
2023-07-28T09:12:15.229Z,4.69
2023-07-28T09:14:42.950Z,5.18
2023-07-28T09:17:11.508Z,5.08
2023-07-28T09:19:51.881Z,4.92
2023-07-28T09:22:20.036Z,5.01
2023-07-28T09:24:49.060Z,5.25
2023-07-28T09:27:25.722Z,5.21
2023-07-28T09:30:00.222Z,5.11
2023-07-28T09:32:34.187Z,5.18
2023-07-28T09:35:10.970Z,5.20
2023-07-28T09:37:40.182Z,4.91
2023-07-28T09:40:12.668Z,4.96
2023-07-28T09:42:42.004Z,4.49
2023-07-28T09:45:22.513Z,4.92
2023-07-28T09:47:58.756Z,4.83
2023-07-28T09:50:29.118Z,4.93
2023-07-28T09:53:01.150Z,4.90
2023-07-28T09:55:31.227Z,4.94
2023-07-28T09:58:05.162Z,5.03
2023-07-28T10:00:33.850Z,4.94
2023-07-28T10:03:02.924Z,5.05
2023-07-28T10:05:33.959Z,5.11
2023-07-28T10:08:04.780Z,5.32
2023-07-28T10:10:33.552Z,5.54
2023-07-28T10:13:05.384Z,5.65
2023-07-28T10:15:34.200Z,5.71
2023-07-28T10:18:02.477Z,5.75
2023-07-28T10:20:31.461Z,5.71
2023-07-28T10:23:06.074Z,5.65
2023-07-28T10:25:37.491Z,5.72
2023-07-28T10:28:07.910Z,5.77
2023-07-28T10:30:40.871Z,5.66
2023-07-28T10:33:13.150Z,5.15
2023-07-28T10:35:49.907Z,3.93
2023-07-28T10:38:35.408Z,3.73
2023-07-28T10:41:24.194Z,3.86
2023-07-28T10:43:55.973Z,3.46
2023-07-28T10:46:24.148Z,3.33
2023-07-28T10:48:58.149Z,3.09
2023-07-28T10:51:29.419Z,3.52
2023-07-28T10:53:58.803Z,3.06
2023-07-28T10:56:27.428Z,2.95
2023-07-28T10:59:00.300Z,3.08
2023-07-28T11:01:33.770Z,3.06
2023-07-28T11:04:07.867Z,3.02
2023-07-28T11:06:35.816Z,3.22
2023-07-28T11:09:06.993Z,3.16
2023-07-28T11:11:37.289Z,3.21
2023-07-28T11:14:12.393Z,2.87
2023-07-28T11:16:42.184Z,2.88
2023-07-28T11:19:11.524Z,3.00
2023-07-28T11:21:39.864Z,2.73
2023-07-28T11:24:09.314Z,2.53
2023-07-28T11:26:37.941Z,2.43
2023-07-28T11:29:07.096Z,2.09
2023-07-28T11:31:36.380Z,2.06
2023-07-28T11:34:04.166Z,2.29
2023-07-28T11:36:32.965Z,2.05
2023-07-28T11:39:01.884Z,2.05
2023-07-28T11:41:30.238Z,1.98
2023-07-28T11:43:58.267Z,1.97
2023-07-28T11:46:37.560Z,2.05
2023-07-28T11:49:12.583Z,1.85
2023-07-28T11:51:44.219Z,1.79
2023-07-28T11:54:13.198Z,1.95
2023-07-28T11:56:41.274Z,1.92
2023-07-28T11:59:09.048Z,1.97
2023-07-28T12:07:09.807Z,2.25
2023-07-28T12:12:25.934Z,2.17
2023-07-28T12:18:52.505Z,2.19
2023-07-28T12:20:18.086Z,2.39
2023-07-28T12:22:47.089Z,2.15
2023-07-28T12:25:16.184Z,2.45
2023-07-28T12:27:43.918Z,2.41
2023-07-28T12:33:02.588Z,2.53
2023-07-28T12:38:42.086Z,2.40
2023-07-28T12:48:28.426Z,2.15
2023-07-28T12:53:27.251Z,2.32
2023-07-28T12:56:01.004Z,2.32
2023-07-28T13:01:03.556Z,2.78
2023-07-28T13:03:33.036Z,2.77
2023-07-28T13:06:01.229Z,2.79
2023-07-28T13:13:31.326Z,2.84
2023-07-28T13:15:59.400Z,2.82
2023-07-28T13:18:27.271Z,2.66
2023-07-28T13:20:56.442Z,2.70
2023-07-28T13:23:24.224Z,2.64
2023-07-28T13:25:52.434Z,2.55
2023-07-28T13:28:20.571Z,2.40
2023-07-28T13:30:54.585Z,2.48
2023-07-28T13:33:28.213Z,2.38
2023-07-28T13:35:57.579Z,2.82
2023-07-28T13:38:25.350Z,2.52
2023-07-28T13:40:53.764Z,2.32
2023-07-28T13:43:21.525Z,2.34
2023-07-28T13:45:51.371Z,2.48
2023-07-28T13:58:23.791Z,2.36
2023-07-28T14:00:51.525Z,2.36
2023-07-28T14:03:19.320Z,2.26
2023-07-28T14:05:47.847Z,2.34
2023-07-28T14:08:15.647Z,2.49
2023-07-28T14:10:47.790Z,2.32
2023-07-28T14:13:15.594Z,2.49
2023-07-28T14:15:43.919Z,2.45
2023-07-28T14:18:12.098Z,2.46
2023-07-28T14:20:40.031Z,2.40
2023-07-28T14:23:22.481Z,2.24
2023-07-28T14:25:52.153Z,2.56
2023-07-28T14:28:20.203Z,2.45
2023-07-28T14:30:48.445Z,2.34
2023-07-28T14:33:16.883Z,2.38
2023-07-28T14:35:46.659Z,2.56
2023-07-28T14:38:14.487Z,2.47
2023-07-28T14:40:50.721Z,2.73
2023-07-28T14:43:20.500Z,2.48
2023-07-28T14:45:48.519Z,2.40
2023-07-28T14:48:16.265Z,2.40
2023-07-28T14:50:44.115Z,2.51
2023-07-28T14:53:30.462Z,2.46
2023-07-28T14:55:58.409Z,2.65
2023-07-28T14:58:28.230Z,2.57
2023-07-28T15:00:56.072Z,2.45
2023-07-28T15:03:24.665Z,2.56
2023-07-28T15:05:52.493Z,2.40
2023-07-28T15:08:20.266Z,2.58
2023-07-28T15:10:47.993Z,2.44
2023-07-28T15:13:15.753Z,2.53
2023-07-28T15:15:45.339Z,2.47
2023-07-28T15:18:13.906Z,2.63
2023-07-28T15:20:42.693Z,2.84
2023-07-28T15:23:10.829Z,2.76
2023-07-28T15:25:43.154Z,2.89
2023-07-28T15:28:11.775Z,3.32
2023-07-28T15:30:39.703Z,3.51
2023-07-28T15:33:09.073Z,2.96
2023-07-28T15:35:36.855Z,3.66
2023-07-28T15:38:04.923Z,6.31
2023-07-28T15:40:32.703Z,5.08
2023-07-28T15:43:00.424Z,3.58
2023-07-28T15:45:28.148Z,5.67
2023-07-28T15:47:55.978Z,8.30
2023-07-28T15:50:25.221Z,4.54
2023-07-28T15:52:53.044Z,4.59
2023-07-28T15:55:21.282Z,4.94
2023-07-28T15:57:49.120Z,7.19
2023-07-28T16:00:17.426Z,5.31
2023-07-28T16:02:47.959Z,4.81
2023-07-28T16:05:15.951Z,3.40
2023-07-28T16:07:45.080Z,4.43
2023-07-28T16:10:12.876Z,2.81
2023-07-28T16:12:40.762Z,2.85
2023-07-28T16:15:08.795Z,2.93
2023-07-28T16:17:39.411Z,2.52
2023-07-28T16:20:10.594Z,2.67
2023-07-28T16:22:39.605Z,2.80
2023-07-28T16:25:09.324Z,2.79
2023-07-28T16:27:37.137Z,2.65
2023-07-28T16:30:07.448Z,2.55
2023-07-28T16:32:35.433Z,2.44
2023-07-28T16:35:03.271Z,2.41
2023-07-28T16:37:30.990Z,2.47
2023-07-28T16:39:59.880Z,2.51
2023-07-28T16:42:29.094Z,2.68
2023-07-28T16:44:56.797Z,2.38
2023-07-28T16:47:24.623Z,2.70
2023-07-28T16:49:52.381Z,2.32
2023-07-28T16:52:21.751Z,2.38
2023-07-28T16:54:49.501Z,2.40
2023-07-28T16:57:17.229Z,2.50
2023-07-28T16:59:46.320Z,2.50
2023-07-28T17:02:14.136Z,2.53
2023-07-28T17:04:41.885Z,2.67
2023-07-28T17:07:12.613Z,2.68
2023-07-28T17:09:40.394Z,2.69
2023-07-28T17:12:08.336Z,2.71
2023-07-28T17:14:36.084Z,2.78
2023-07-28T17:17:05.462Z,2.65
2023-07-28T17:19:33.215Z,2.89
2023-07-28T17:22:01.011Z,3.16
2023-07-28T17:24:28.774Z,4.97
2023-07-28T17:26:56.934Z,5.15
2023-07-28T17:29:28.101Z,8.36
2023-07-28T17:31:55.811Z,6.63
2023-07-28T17:34:24.941Z,5.76
2023-07-28T17:36:53.119Z,3.72
2023-07-28T17:39:20.847Z,2.90
2023-07-28T17:41:48.626Z,3.19
2023-07-28T17:44:16.376Z,3.23
2023-07-28T17:46:44.206Z,3.25
2023-07-28T17:49:11.930Z,3.32
2023-07-28T17:51:41.065Z,3.28
2023-07-28T17:54:08.782Z,3.50
2023-07-28T17:56:36.605Z,3.55
2023-07-28T17:59:04.460Z,3.49
2023-07-28T18:01:32.223Z,3.62
2023-07-28T18:04:00.013Z,3.82
2023-07-28T18:06:27.773Z,3.70
2023-07-28T18:08:56.896Z,3.54
2023-07-28T18:11:24.601Z,3.70
2023-07-28T18:13:52.324Z,3.62
2023-07-28T18:16:20.123Z,3.59
2023-07-28T18:18:47.891Z,3.77
2023-07-28T18:21:15.607Z,3.44
2023-07-28T18:23:43.498Z,3.76
2023-07-28T18:26:12.854Z,3.83
2023-07-28T18:28:40.609Z,3.78
2023-07-28T18:31:09.941Z,3.80
2023-07-28T18:33:37.767Z,3.38
2023-07-28T18:36:06.892Z,3.22
2023-07-28T18:38:34.720Z,3.35
2023-07-28T18:41:02.494Z,3.38
2023-07-28T18:43:33.140Z,3.48
2023-07-28T18:46:00.886Z,3.35
2023-07-28T18:48:28.769Z,3.17
2023-07-28T18:50:57.374Z,3.42
2023-07-28T18:53:25.133Z,3.39
2023-07-28T18:55:52.925Z,3.53
2023-07-28T18:58:20.679Z,3.71
2023-07-28T19:00:49.858Z,3.56
2023-07-28T19:03:18.387Z,3.59
2023-07-28T19:05:46.317Z,3.60
2023-07-28T19:08:14.095Z,3.51
2023-07-28T19:10:45.319Z,3.74
2023-07-28T19:13:13.081Z,3.79
2023-07-28T19:15:47.548Z,3.43
2023-07-28T19:18:18.469Z,3.53
2023-07-28T19:20:47.022Z,3.55
2023-07-28T19:23:14.861Z,3.33
2023-07-28T19:25:42.666Z,3.25
2023-07-28T19:28:10.622Z,3.25
2023-07-28T19:30:38.422Z,3.51
2023-07-28T19:33:06.383Z,3.75
2023-07-28T19:35:35.499Z,3.55
2023-07-28T19:38:03.262Z,3.52
2023-07-28T19:40:30.992Z,3.63
2023-07-28T19:42:58.775Z,3.53
2023-07-28T19:45:26.534Z,3.70
2023-07-28T19:47:54.376Z,3.60
2023-07-28T19:50:39.320Z,3.89
2023-07-28T19:53:12.037Z,3.65
2023-07-28T19:55:39.819Z,3.98
2023-07-28T19:58:08.564Z,4.03
2023-07-28T20:00:36.304Z,4.05
2023-07-28T20:03:04.143Z,4.19
2023-07-28T20:05:32.774Z,4.28
2023-07-28T20:08:00.506Z,4.60
2023-07-28T20:10:29.681Z,4.11
2023-07-28T20:12:57.401Z,3.96
2023-07-28T20:15:25.162Z,4.47
2023-07-28T20:17:52.972Z,4.59
2023-07-28T20:20:20.731Z,4.89
2023-07-28T20:22:49.959Z,5.16
2023-07-28T20:25:17.728Z,5.34
2023-07-28T20:27:46.852Z,5.41
2023-07-28T20:30:15.512Z,5.50
2023-07-28T20:32:43.252Z,5.76
2023-07-28T20:35:10.974Z,5.51
2023-07-28T20:37:38.691Z,5.51
2023-07-28T20:40:06.959Z,5.45
2023-07-28T20:42:34.695Z,5.79
2023-07-28T20:45:03.900Z,5.75
2023-07-28T20:47:31.645Z,5.59
2023-07-28T20:49:59.510Z,5.44
2023-07-28T20:52:27.224Z,5.38
2023-07-28T20:54:54.956Z,5.78
2023-07-28T20:57:22.713Z,5.71
2023-07-28T20:59:50.430Z,5.83
2023-07-28T21:02:19.538Z,5.82
2023-07-28T21:04:47.295Z,5.79
2023-07-28T21:07:15.066Z,5.67
2023-07-28T21:09:42.760Z,5.12
2023-07-28T21:12:11.638Z,5.62
2023-07-28T21:14:39.496Z,5.49
2023-07-28T21:17:07.685Z,5.42
2023-07-28T21:19:36.875Z,5.29
2023-07-28T21:22:05.922Z,5.14
2023-07-28T21:24:33.671Z,5.14
2023-07-28T21:27:01.809Z,5.47
2023-07-28T21:29:29.661Z,5.68
2023-07-28T21:31:57.418Z,5.64
2023-07-28T21:34:25.115Z,5.25
2023-07-28T21:36:54.736Z,5.26
2023-07-28T21:39:23.433Z,4.96
2023-07-28T21:41:53.328Z,5.03
2023-07-28T21:44:21.098Z,5.19
2023-07-28T21:46:49.620Z,5.02
2023-07-28T21:49:21.234Z,4.84
2023-07-28T21:51:49.211Z,4.87
2023-07-28T21:54:18.329Z,4.81
2023-07-28T21:56:46.093Z,4.91
2023-07-28T21:59:13.876Z,4.79
2023-07-28T22:01:41.770Z,4.68
2023-07-28T22:04:09.657Z,4.69
2023-07-28T22:06:37.675Z,4.76
2023-07-28T22:09:06.220Z,5.13
2023-07-28T22:11:35.466Z,4.81
2023-07-28T22:14:03.185Z,4.64
2023-07-28T22:16:32.733Z,4.79
2023-07-28T22:19:00.650Z,4.89
2023-07-28T22:21:28.452Z,4.76
2023-07-28T22:23:56.167Z,4.53
2023-07-28T22:26:23.915Z,4.68
2023-07-28T22:28:52.973Z,4.68
2023-07-28T22:31:20.722Z,4.61
2023-07-28T22:33:48.618Z,4.94
2023-07-28T22:36:16.379Z,4.84
2023-07-28T22:38:44.171Z,4.68
2023-07-28T22:41:11.946Z,4.37
2023-07-28T22:43:39.748Z,4.40
2023-07-28T22:46:08.901Z,4.30
2023-07-28T22:48:36.769Z,4.43
2023-07-28T22:51:04.814Z,4.07
2023-07-28T22:53:32.562Z,4.46
2023-07-28T22:56:00.379Z,4.12
2023-07-28T22:58:28.109Z,3.76
2023-07-28T23:00:55.944Z,4.12
2023-07-28T23:03:25.367Z,4.02
2023-07-28T23:05:53.640Z,3.93
2023-07-28T23:08:21.443Z,4.07
2023-07-28T23:10:49.200Z,3.69
2023-07-28T23:13:17.046Z,3.55
2023-07-28T23:15:44.964Z,3.59
2023-07-28T23:18:13.801Z,3.58
2023-07-28T23:20:42.933Z,3.82
2023-07-28T23:23:10.691Z,3.61
2023-07-28T23:25:38.411Z,3.88
2023-07-28T23:28:06.163Z,3.59
2023-07-28T23:30:34.079Z,3.55
2023-07-28T23:33:01.852Z,3.68
2023-07-28T23:35:29.663Z,3.47
2023-07-28T23:37:58.759Z,3.59
2023-07-28T23:40:29.271Z,3.63
2023-07-28T23:42:57.033Z,3.95
2023-07-28T23:45:24.802Z,3.94
2023-07-28T23:47:52.572Z,4.03
2023-07-28T23:50:20.458Z,3.93
2023-07-28T23:52:48.209Z,4.26
2023-07-28T23:55:17.385Z,3.91
2023-07-28T23:57:45.140Z,3.78
